sensor_id;sensor_type;location;lat;lon;timestamp;temperature;humidity
7004;DHT22;3542;48.812;9.146;2023-02-25T00:01:39;5.00;99.90
7004;DHT22;3542;48.812;9.146;2023-02-25T00:04:04;5.00;99.90
7004;DHT22;3542;48.812;9.146;2023-02-25T00:06:30;5.00;99.90
7004;DHT22;3542;48.812;9.146;2023-02-25T00:08:55;5.00;99.90
7004;DHT22;3542;48.812;9.146;2023-02-25T00:11:23;5.00;99.90
7004;DHT22;3542;48.812;9.146;2023-02-25T00:13:49;5.00;99.90
7004;DHT22;3542;48.812;9.146;2023-02-25T00:16:15;5.00;99.90
7004;DHT22;3542;48.812;9.146;2023-02-25T00:18:41;5.00;99.90
7004;DHT22;3542;48.812;9.146;2023-02-25T00:21:12;5.00;99.90
7004;DHT22;3542;48.812;9.146;2023-02-25T00:23:47;5.00;99.90
7004;DHT22;3542;48.812;9.146;2023-02-25T00:26:15;5.00;99.90
7004;DHT22;3542;48.812;9.146;2023-02-25T00:28:41;4.90;99.90
7004;DHT22;3542;48.812;9.146;2023-02-25T00:31:13;4.90;99.90
7004;DHT22;3542;48.812;9.146;2023-02-25T00:33:40;4.90;99.90
7004;DHT22;3542;48.812;9.146;2023-02-25T00:36:09;4.90;99.90
7004;DHT22;3542;48.812;9.146;2023-02-25T00:38:36;4.90;99.90
7004;DHT22;3542;48.812;9.146;2023-02-25T00:41:09;4.90;99.90
7004;DHT22;3542;48.812;9.146;2023-02-25T00:43:39;4.90;99.90
7004;DHT22;3542;48.812;9.146;2023-02-25T00:46:06;4.90;99.90
7004;DHT22;3542;48.812;9.146;2023-02-25T00:48:32;4.90;99.90
7004;DHT22;3542;48.812;9.146;2023-02-25T00:51:06;4.90;99.90
7004;DHT22;3542;48.812;9.146;2023-02-25T00:53:33;4.90;99.90
7004;DHT22;3542;48.812;9.146;2023-02-25T00:56:00;4.90;99.90
7004;DHT22;3542;48.812;9.146;2023-02-25T00:58:26;4.90;99.90
7004;DHT22;3542;48.812;9.146;2023-02-25T01:00:52;4.90;99.90
7004;DHT22;3542;48.812;9.146;2023-02-25T01:03:17;4.90;99.90
7004;DHT22;3542;48.812;9.146;2023-02-25T01:05:43;4.90;99.90
7004;DHT22;3542;48.812;9.146;2023-02-25T01:08:17;4.90;99.90
7004;DHT22;3542;48.812;9.146;2023-02-25T01:10:43;4.90;99.90
7004;DHT22;3542;48.812;9.146;2023-02-25T01:13:09;4.90;99.90
7004;DHT22;3542;48.812;9.146;2023-02-25T01:15:34;4.90;99.90
7004;DHT22;3542;48.812;9.146;2023-02-25T01:18:00;4.90;99.90
7004;DHT22;3542;48.812;9.146;2023-02-25T01:20:25;4.90;99.90
7004;DHT22;3542;48.812;9.146;2023-02-25T01:22:54;4.90;99.90
7004;DHT22;3542;48.812;9.146;2023-02-25T01:25:20;4.80;99.90
7004;DHT22;3542;48.812;9.146;2023-02-25T01:27:45;4.80;99.90
7004;DHT22;3542;48.812;9.146;2023-02-25T01:30:11;4.80;99.90
7004;DHT22;3542;48.812;9.146;2023-02-25T01:32:37;4.80;99.90
7004;DHT22;3542;48.812;9.146;2023-02-25T01:35:03;4.80;99.90
7004;DHT22;3542;48.812;9.146;2023-02-25T01:37:29;4.80;99.90
7004;DHT22;3542;48.812;9.146;2023-02-25T01:39:54;4.90;99.90
7004;DHT22;3542;48.812;9.146;2023-02-25T01:42:20;4.80;99.90
7004;DHT22;3542;48.812;9.146;2023-02-25T01:47:37;4.80;99.90
7004;DHT22;3542;48.812;9.146;2023-02-25T01:50:05;4.70;99.90
7004;DHT22;3542;48.812;9.146;2023-02-25T01:52:30;4.70;99.90
7004;DHT22;3542;48.812;9.146;2023-02-25T01:54:57;4.70;99.90
7004;DHT22;3542;48.812;9.146;2023-02-25T01:57:22;4.70;99.90
7004;DHT22;3542;48.812;9.146;2023-02-25T01:59:49;4.70;99.90
7004;DHT22;3542;48.812;9.146;2023-02-25T03:32:53;4.50;99.90
7004;DHT22;3542;48.812;9.146;2023-02-25T03:35:21;4.50;99.90
7004;DHT22;3542;48.812;9.146;2023-02-25T03:37:50;4.50;99.90
7004;DHT22;3542;48.812;9.146;2023-02-25T03:40:17;4.50;99.90
7004;DHT22;3542;48.812;9.146;2023-02-25T03:42:53;4.40;99.90
7004;DHT22;3542;48.812;9.146;2023-02-25T03:45:21;4.40;99.90
7004;DHT22;3542;48.812;9.146;2023-02-25T03:47:49;4.30;99.90
7004;DHT22;3542;48.812;9.146;2023-02-25T03:50:27;4.30;99.90
7004;DHT22;3542;48.812;9.146;2023-02-25T03:52:54;4.20;99.90
7004;DHT22;3542;48.812;9.146;2023-02-25T03:55:20;4.10;99.90
7004;DHT22;3542;48.812;9.146;2023-02-25T03:57:49;4.10;99.90
7004;DHT22;3542;48.812;9.146;2023-02-25T04:00:27;4.10;99.90
7004;DHT22;3542;48.812;9.146;2023-02-25T04:02:53;4.10;99.90
7004;DHT22;3542;48.812;9.146;2023-02-25T04:05:20;4.10;99.90
7004;DHT22;3542;48.812;9.146;2023-02-25T04:07:46;4.10;99.90
7004;DHT22;3542;48.812;9.146;2023-02-25T04:10:14;4.10;99.90
7004;DHT22;3542;48.812;9.146;2023-02-25T04:12:40;4.10;99.90
7004;DHT22;3542;48.812;9.146;2023-02-25T04:15:06;4.10;99.90
7004;DHT22;3542;48.812;9.146;2023-02-25T04:17:33;4.10;99.90
7004;DHT22;3542;48.812;9.146;2023-02-25T04:19:58;4.10;99.90
7004;DHT22;3542;48.812;9.146;2023-02-25T04:22:24;4.10;99.90
7004;DHT22;3542;48.812;9.146;2023-02-25T04:24:50;4.10;99.90
7004;DHT22;3542;48.812;9.146;2023-02-25T04:27:15;4.10;99.90
7004;DHT22;3542;48.812;9.146;2023-02-25T04:29:42;4.10;99.90
7004;DHT22;3542;48.812;9.146;2023-02-25T04:32:08;4.00;99.90
7004;DHT22;3542;48.812;9.146;2023-02-25T04:34:33;4.10;99.90
7004;DHT22;3542;48.812;9.146;2023-02-25T04:36:59;4.10;99.90
7004;DHT22;3542;48.812;9.146;2023-02-25T04:39:27;4.10;99.90
7004;DHT22;3542;48.812;9.146;2023-02-25T04:41:53;4.10;99.90
7004;DHT22;3542;48.812;9.146;2023-02-25T04:44:18;4.10;99.90
7004;DHT22;3542;48.812;9.146;2023-02-25T04:46:44;4.10;99.90
7004;DHT22;3542;48.812;9.146;2023-02-25T04:49:10;4.10;99.90
7004;DHT22;3542;48.812;9.146;2023-02-25T04:51:37;4.10;99.90
7004;DHT22;3542;48.812;9.146;2023-02-25T04:54:03;4.10;99.90
7004;DHT22;3542;48.812;9.146;2023-02-25T04:56:29;4.00;99.90
7004;DHT22;3542;48.812;9.146;2023-02-25T04:58:56;4.00;99.90
7004;DHT22;3542;48.812;9.146;2023-02-25T05:01:22;4.00;99.90
7004;DHT22;3542;48.812;9.146;2023-02-25T05:03:48;4.00;99.90
7004;DHT22;3542;48.812;9.146;2023-02-25T05:06:13;4.00;99.90
7004;DHT22;3542;48.812;9.146;2023-02-25T05:08:39;4.00;99.90
7004;DHT22;3542;48.812;9.146;2023-02-25T05:11:05;3.90;99.90
7004;DHT22;3542;48.812;9.146;2023-02-25T05:13:30;3.90;99.90
7004;DHT22;3542;48.812;9.146;2023-02-25T05:16:10;3.90;99.90
7004;DHT22;3542;48.812;9.146;2023-02-25T05:18:41;4.00;99.90
7004;DHT22;3542;48.812;9.146;2023-02-25T05:21:11;4.00;99.90
7004;DHT22;3542;48.812;9.146;2023-02-25T05:23:41;4.00;99.90
7004;DHT22;3542;48.812;9.146;2023-02-25T05:26:07;4.00;99.90
7004;DHT22;3542;48.812;9.146;2023-02-25T05:28:33;4.00;99.90
7004;DHT22;3542;48.812;9.146;2023-02-25T05:30:59;4.00;99.90
7004;DHT22;3542;48.812;9.146;2023-02-25T05:33:27;4.00;99.90
7004;DHT22;3542;48.812;9.146;2023-02-25T05:35:54;4.00;99.90
7004;DHT22;3542;48.812;9.146;2023-02-25T05:38:19;4.00;99.90
7004;DHT22;3542;48.812;9.146;2023-02-25T05:40:45;4.00;99.90
7004;DHT22;3542;48.812;9.146;2023-02-25T05:43:10;4.00;99.90
7004;DHT22;3542;48.812;9.146;2023-02-25T05:45:36;4.00;99.90
7004;DHT22;3542;48.812;9.146;2023-02-25T05:48:01;4.00;99.90
7004;DHT22;3542;48.812;9.146;2023-02-25T05:50:27;4.00;99.90
7004;DHT22;3542;48.812;9.146;2023-02-25T05:52:53;4.00;99.90
7004;DHT22;3542;48.812;9.146;2023-02-25T05:55:19;4.00;99.90
7004;DHT22;3542;48.812;9.146;2023-02-25T05:57:44;4.10;99.90
7004;DHT22;3542;48.812;9.146;2023-02-25T06:00:10;4.10;99.90
7004;DHT22;3542;48.812;9.146;2023-02-25T06:02:39;4.00;99.90
7004;DHT22;3542;48.812;9.146;2023-02-25T06:05:05;4.10;99.90
7004;DHT22;3542;48.812;9.146;2023-02-25T06:07:31;4.00;99.90
7004;DHT22;3542;48.812;9.146;2023-02-25T06:09:58;4.10;99.90
7004;DHT22;3542;48.812;9.146;2023-02-25T06:12:27;4.10;99.90
7004;DHT22;3542;48.812;9.146;2023-02-25T06:14:52;4.10;99.90
7004;DHT22;3542;48.812;9.146;2023-02-25T06:17:18;4.10;99.90
7004;DHT22;3542;48.812;9.146;2023-02-25T06:19:44;4.20;99.90
7004;DHT22;3542;48.812;9.146;2023-02-25T06:22:09;4.10;99.90
7004;DHT22;3542;48.812;9.146;2023-02-25T06:24:35;4.10;99.90
7004;DHT22;3542;48.812;9.146;2023-02-25T06:27:01;4.10;99.90
7004;DHT22;3542;48.812;9.146;2023-02-25T06:29:26;4.10;99.90
7004;DHT22;3542;48.812;9.146;2023-02-25T06:31:52;4.10;99.90
7004;DHT22;3542;48.812;9.146;2023-02-25T06:34:19;4.20;99.90
7004;DHT22;3542;48.812;9.146;2023-02-25T06:36:44;4.20;99.90
7004;DHT22;3542;48.812;9.146;2023-02-25T06:39:10;4.20;99.90
7004;DHT22;3542;48.812;9.146;2023-02-25T06:41:36;4.30;99.90
7004;DHT22;3542;48.812;9.146;2023-02-25T06:44:02;4.20;99.90
7004;DHT22;3542;48.812;9.146;2023-02-25T06:46:28;4.20;99.90
7004;DHT22;3542;48.812;9.146;2023-02-25T06:48:54;4.20;99.90
7004;DHT22;3542;48.812;9.146;2023-02-25T06:51:20;4.20;99.90
7004;DHT22;3542;48.812;9.146;2023-02-25T06:53:46;4.20;99.90
7004;DHT22;3542;48.812;9.146;2023-02-25T06:56:13;4.20;99.90
7004;DHT22;3542;48.812;9.146;2023-02-25T06:58:39;4.30;99.90
7004;DHT22;3542;48.812;9.146;2023-02-25T07:01:07;4.30;99.90
7004;DHT22;3542;48.812;9.146;2023-02-25T07:03:33;4.30;99.90
7004;DHT22;3542;48.812;9.146;2023-02-25T07:05:58;4.30;99.90
7004;DHT22;3542;48.812;9.146;2023-02-25T07:08:24;4.30;99.90
7004;DHT22;3542;48.812;9.146;2023-02-25T07:10:49;4.30;99.90
7004;DHT22;3542;48.812;9.146;2023-02-25T07:13:15;4.30;99.90
7004;DHT22;3542;48.812;9.146;2023-02-25T07:15:40;4.40;99.90
7004;DHT22;3542;48.812;9.146;2023-02-25T07:18:06;4.40;99.90
7004;DHT22;3542;48.812;9.146;2023-02-25T07:20:32;4.40;99.90
7004;DHT22;3542;48.812;9.146;2023-02-25T07:22:57;4.50;99.90
7004;DHT22;3542;48.812;9.146;2023-02-25T07:25:23;4.60;99.90
7004;DHT22;3542;48.812;9.146;2023-02-25T07:27:48;4.60;99.90
7004;DHT22;3542;48.812;9.146;2023-02-25T07:30:14;4.70;99.90
7004;DHT22;3542;48.812;9.146;2023-02-25T07:32:40;4.70;99.90
7004;DHT22;3542;48.812;9.146;2023-02-25T07:35:07;4.80;99.90
7004;DHT22;3542;48.812;9.146;2023-02-25T07:37:33;4.90;99.90
7004;DHT22;3542;48.812;9.146;2023-02-25T07:39:58;5.00;99.90
7004;DHT22;3542;48.812;9.146;2023-02-25T07:42:27;5.00;99.90
7004;DHT22;3542;48.812;9.146;2023-02-25T07:44:52;5.00;99.90
7004;DHT22;3542;48.812;9.146;2023-02-25T07:47:18;4.90;99.90
7004;DHT22;3542;48.812;9.146;2023-02-25T07:49:44;4.80;99.90
7004;DHT22;3542;48.812;9.146;2023-02-25T07:52:10;4.80;99.90
7004;DHT22;3542;48.812;9.146;2023-02-25T07:54:35;4.80;99.90
7004;DHT22;3542;48.812;9.146;2023-02-25T07:57:01;4.80;99.90
7004;DHT22;3542;48.812;9.146;2023-02-25T07:59:27;4.90;99.90
7004;DHT22;3542;48.812;9.146;2023-02-25T08:01:53;5.00;99.90
7004;DHT22;3542;48.812;9.146;2023-02-25T08:04:19;5.10;99.90
7004;DHT22;3542;48.812;9.146;2023-02-25T08:06:44;5.20;99.90
7004;DHT22;3542;48.812;9.146;2023-02-25T08:09:11;5.20;99.90
7004;DHT22;3542;48.812;9.146;2023-02-25T08:11:38;5.10;99.90
7004;DHT22;3542;48.812;9.146;2023-02-25T08:14:03;5.10;99.90
7004;DHT22;3542;48.812;9.146;2023-02-25T08:16:30;5.20;99.90
7004;DHT22;3542;48.812;9.146;2023-02-25T08:18:57;5.20;99.90
7004;DHT22;3542;48.812;9.146;2023-02-25T08:21:23;5.30;99.90
7004;DHT22;3542;48.812;9.146;2023-02-25T08:23:52;5.40;99.90
7004;DHT22;3542;48.812;9.146;2023-02-25T08:26:19;5.90;99.90
7004;DHT22;3542;48.812;9.146;2023-02-25T08:28:47;6.50;99.90
7004;DHT22;3542;48.812;9.146;2023-02-25T08:31:13;6.80;99.90
7004;DHT22;3542;48.812;9.146;2023-02-25T08:33:41;7.20;99.90
7004;DHT22;3542;48.812;9.146;2023-02-25T08:36:13;7.20;99.90
7004;DHT22;3542;48.812;9.146;2023-02-25T08:38:40;7.50;99.90
7004;DHT22;3542;48.812;9.146;2023-02-25T08:41:06;7.70;99.90
7004;DHT22;3542;48.812;9.146;2023-02-25T08:43:33;7.90;99.90
7004;DHT22;3542;48.812;9.146;2023-02-25T08:45:58;8.00;99.90
7004;DHT22;3542;48.812;9.146;2023-02-25T08:48:24;8.20;99.90
7004;DHT22;3542;48.812;9.146;2023-02-25T08:50:50;8.60;99.90
7004;DHT22;3542;48.812;9.146;2023-02-25T08:53:15;9.20;99.90
7004;DHT22;3542;48.812;9.146;2023-02-25T08:55:41;9.80;99.90
7004;DHT22;3542;48.812;9.146;2023-02-25T08:58:07;10.00;99.90
7004;DHT22;3542;48.812;9.146;2023-02-25T09:00:33;10.60;99.90
7004;DHT22;3542;48.812;9.146;2023-02-25T09:02:58;10.70;99.90
7004;DHT22;3542;48.812;9.146;2023-02-25T09:05:24;11.20;99.90
7004;DHT22;3542;48.812;9.146;2023-02-25T09:07:50;11.40;99.90
7004;DHT22;3542;48.812;9.146;2023-02-25T09:10:16;11.10;99.90
7004;DHT22;3542;48.812;9.146;2023-02-25T09:12:43;11.50;99.90
7004;DHT22;3542;48.812;9.146;2023-02-25T09:15:10;11.70;99.90
7004;DHT22;3542;48.812;9.146;2023-02-25T09:17:37;11.90;99.90
7004;DHT22;3542;48.812;9.146;2023-02-25T09:20:03;12.10;99.90
7004;DHT22;3542;48.812;9.146;2023-02-25T09:22:33;12.50;99.90
7004;DHT22;3542;48.812;9.146;2023-02-25T09:24:59;12.50;99.90
7004;DHT22;3542;48.812;9.146;2023-02-25T09:27:25;12.50;99.90
7004;DHT22;3542;48.812;9.146;2023-02-25T09:29:51;13.00;99.90
7004;DHT22;3542;48.812;9.146;2023-02-25T09:32:20;13.00;99.90
7004;DHT22;3542;48.812;9.146;2023-02-25T09:34:46;12.70;99.90
7004;DHT22;3542;48.812;9.146;2023-02-25T09:37:14;13.10;99.90
7004;DHT22;3542;48.812;9.146;2023-02-25T09:39:39;13.60;99.90
7004;DHT22;3542;48.812;9.146;2023-02-25T09:42:10;13.30;99.90
7004;DHT22;3542;48.812;9.146;2023-02-25T09:44:58;12.40;99.90
7004;DHT22;3542;48.812;9.146;2023-02-25T09:47:39;12.00;99.90
7004;DHT22;3542;48.812;9.146;2023-02-25T09:50:15;11.30;99.90
7004;DHT22;3542;48.812;9.146;2023-02-25T09:53:09;10.60;99.90
7004;DHT22;3542;48.812;9.146;2023-02-25T09:55:37;10.10;99.90
7004;DHT22;3542;48.812;9.146;2023-02-25T10:00:42;9.60;99.90
7004;DHT22;3542;48.812;9.146;2023-02-25T10:03:23;9.10;99.90
7004;DHT22;3542;48.812;9.146;2023-02-25T10:06:01;8.80;99.90
7004;DHT22;3542;48.812;9.146;2023-02-25T10:08:39;8.60;99.90
7004;DHT22;3542;48.812;9.146;2023-02-25T10:11:42;8.40;99.90
7004;DHT22;3542;48.812;9.146;2023-02-25T10:22:21;8.20;99.90
7004;DHT22;3542;48.812;9.146;2023-02-25T10:24:57;8.30;99.90
7004;DHT22;3542;48.812;9.146;2023-02-25T10:27:30;8.20;99.90
7004;DHT22;3542;48.812;9.146;2023-02-25T10:30:24;8.00;99.90
7004;DHT22;3542;48.812;9.146;2023-02-25T10:32:52;7.80;99.90
7004;DHT22;3542;48.812;9.146;2023-02-25T10:35:23;7.70;99.90
7004;DHT22;3542;48.812;9.146;2023-02-25T10:37:49;7.50;99.90
7004;DHT22;3542;48.812;9.146;2023-02-25T10:40:19;7.40;99.90
7004;DHT22;3542;48.812;9.146;2023-02-25T10:42:47;7.40;99.90
7004;DHT22;3542;48.812;9.146;2023-02-25T10:45:21;7.40;99.90
7004;DHT22;3542;48.812;9.146;2023-02-25T10:47:57;7.20;99.90
7004;DHT22;3542;48.812;9.146;2023-02-25T10:50:27;7.30;99.90
7004;DHT22;3542;48.812;9.146;2023-02-25T10:52:59;7.30;99.90
7004;DHT22;3542;48.812;9.146;2023-02-25T10:56:12;7.10;99.90
7004;DHT22;3542;48.812;9.146;2023-02-25T10:58:40;7.10;99.90
7004;DHT22;3542;48.812;9.146;2023-02-25T11:06:23;7.30;99.90
7004;DHT22;3542;48.812;9.146;2023-02-25T11:08:51;7.30;99.90
7004;DHT22;3542;48.812;9.146;2023-02-25T11:11:21;7.50;99.90
7004;DHT22;3542;48.812;9.146;2023-02-25T11:14:14;7.90;99.90
7004;DHT22;3542;48.812;9.146;2023-02-25T11:16:41;8.30;99.90
7004;DHT22;3542;48.812;9.146;2023-02-25T11:19:19;8.60;99.90
7004;DHT22;3542;48.812;9.146;2023-02-25T11:21:47;8.70;99.90
7004;DHT22;3542;48.812;9.146;2023-02-25T11:24:19;8.80;99.90
7004;DHT22;3542;48.812;9.146;2023-02-25T11:26:48;8.70;99.90
7004;DHT22;3542;48.812;9.146;2023-02-25T11:29:26;8.60;99.90
7004;DHT22;3542;48.812;9.146;2023-02-25T11:31:59;8.60;99.90
7004;DHT22;3542;48.812;9.146;2023-02-25T11:34:27;8.00;99.90
7004;DHT22;3542;48.812;9.146;2023-02-25T11:36:54;7.70;99.90
7004;DHT22;3542;48.812;9.146;2023-02-25T11:39:24;7.70;99.90
7004;DHT22;3542;48.812;9.146;2023-02-25T11:42:01;7.70;99.90
7004;DHT22;3542;48.812;9.146;2023-02-25T11:44:29;7.50;99.90
7004;DHT22;3542;48.812;9.146;2023-02-25T11:47:19;7.70;99.90
7004;DHT22;3542;48.812;9.146;2023-02-25T11:52:37;7.60;99.90
7004;DHT22;3542;48.812;9.146;2023-02-25T11:55:34;7.70;99.90
7004;DHT22;3542;48.812;9.146;2023-02-25T11:58:20;7.80;99.90
7004;DHT22;3542;48.812;9.146;2023-02-25T12:04:10;7.90;99.90
7004;DHT22;3542;48.812;9.146;2023-02-25T12:19:09;7.60;99.90
7004;DHT22;3542;48.812;9.146;2023-02-25T12:33:13;6.90;99.90
7004;DHT22;3542;48.812;9.146;2023-02-25T12:36:19;6.70;99.90
7004;DHT22;3542;48.812;9.146;2023-02-25T12:42:10;6.70;99.90
7004;DHT22;3542;48.812;9.146;2023-02-25T12:47:43;6.40;99.90
7004;DHT22;3542;48.812;9.146;2023-02-25T12:59:05;5.80;99.90
7004;DHT22;3542;48.812;9.146;2023-02-25T13:01:52;5.70;99.90
7004;DHT22;3542;48.812;9.146;2023-02-25T13:04:44;5.70;99.90
7004;DHT22;3542;48.812;9.146;2023-02-25T13:07:42;5.70;99.90
7004;DHT22;3542;48.812;9.146;2023-02-25T13:10:42;5.70;99.90
7004;DHT22;3542;48.812;9.146;2023-02-25T13:19:03;6.00;99.90
7004;DHT22;3542;48.812;9.146;2023-02-25T13:25:11;6.10;99.90
7004;DHT22;3542;48.812;9.146;2023-02-25T13:27:55;6.20;99.90
7004;DHT22;3542;48.812;9.146;2023-02-25T13:33:36;6.20;99.90
7004;DHT22;3542;48.812;9.146;2023-02-25T13:36:24;6.30;99.90
7004;DHT22;3542;48.812;9.146;2023-02-25T13:41:35;6.50;99.90
7004;DHT22;3542;48.812;9.146;2023-02-25T13:49:34;7.20;99.90
7004;DHT22;3542;48.812;9.146;2023-02-25T13:52:09;7.20;99.90
7004;DHT22;3542;48.812;9.146;2023-02-25T13:58:44;7.40;99.90
7004;DHT22;3542;48.812;9.146;2023-02-25T14:01:11;7.30;99.90
7004;DHT22;3542;48.812;9.146;2023-02-25T14:09:44;7.30;99.90
7004;DHT22;3542;48.812;9.146;2023-02-25T14:23:23;7.80;99.90
7004;DHT22;3542;48.812;9.146;2023-02-25T14:35:22;7.50;99.90
7004;DHT22;3542;48.812;9.146;2023-02-25T14:38:14;7.40;99.90
7004;DHT22;3542;48.812;9.146;2023-02-25T14:43:45;7.50;99.90
7004;DHT22;3542;48.812;9.146;2023-02-25T14:46:39;7.50;99.90
7004;DHT22;3542;48.812;9.146;2023-02-25T14:49:12;7.40;99.90
7004;DHT22;3542;48.812;9.146;2023-02-25T15:19:57;6.30;99.90
7004;DHT22;3542;48.812;9.146;2023-02-25T15:22:27;6.10;99.90
7004;DHT22;3542;48.812;9.146;2023-02-25T15:30:22;6.10;99.90
7004;DHT22;3542;48.812;9.146;2023-02-25T15:42:58;6.10;99.90
7004;DHT22;3542;48.812;9.146;2023-02-25T15:55:47;6.10;99.90
7004;DHT22;3542;48.812;9.146;2023-02-25T15:58:51;6.00;99.90
7004;DHT22;3542;48.812;9.146;2023-02-25T16:03:45;5.80;99.90
7004;DHT22;3542;48.812;9.146;2023-02-25T16:09:06;5.40;99.90
7004;DHT22;3542;48.812;9.146;2023-02-25T16:11:41;5.30;99.90
7004;DHT22;3542;48.812;9.146;2023-02-25T16:14:18;5.20;99.90
7004;DHT22;3542;48.812;9.146;2023-02-25T16:19:22;4.90;99.90
7004;DHT22;3542;48.812;9.146;2023-02-25T16:21:56;4.80;99.90
7004;DHT22;3542;48.812;9.146;2023-02-25T16:24:22;4.70;99.90
7004;DHT22;3542;48.812;9.146;2023-02-25T16:26:56;4.60;99.90
7004;DHT22;3542;48.812;9.146;2023-02-25T16:29:37;4.60;99.90
7004;DHT22;3542;48.812;9.146;2023-02-25T16:37:49;4.60;99.90
7004;DHT22;3542;48.812;9.146;2023-02-25T16:40:41;4.60;99.90
7004;DHT22;3542;48.812;9.146;2023-02-25T16:43:15;4.50;99.90
7004;DHT22;3542;48.812;9.146;2023-02-25T16:48:26;4.40;99.90
7004;DHT22;3542;48.812;9.146;2023-02-25T16:50:53;4.40;99.90
7004;DHT22;3542;48.812;9.146;2023-02-25T16:53:26;4.40;99.90
7004;DHT22;3542;48.812;9.146;2023-02-25T16:55:57;4.40;99.90
7004;DHT22;3542;48.812;9.146;2023-02-25T16:58:24;4.30;99.90
7004;DHT22;3542;48.812;9.146;2023-02-25T17:00:59;4.30;99.90
7004;DHT22;3542;48.812;9.146;2023-02-25T17:03:28;4.30;99.90
7004;DHT22;3542;48.812;9.146;2023-02-25T17:06:18;4.30;99.90
7004;DHT22;3542;48.812;9.146;2023-02-25T17:08:46;4.30;99.90
7004;DHT22;3542;48.812;9.146;2023-02-25T17:11:18;4.30;99.90
7004;DHT22;3542;48.812;9.146;2023-02-25T17:13:44;4.30;99.90
7004;DHT22;3542;48.812;9.146;2023-02-25T17:16:29;4.30;99.90
7004;DHT22;3542;48.812;9.146;2023-02-25T17:18:57;4.20;99.90
7004;DHT22;3542;48.812;9.146;2023-02-25T17:21:31;4.10;99.90
7004;DHT22;3542;48.812;9.146;2023-02-25T17:24:01;4.10;99.90
7004;DHT22;3542;48.812;9.146;2023-02-25T17:26:28;4.10;99.90
7004;DHT22;3542;48.812;9.146;2023-02-25T17:28:57;4.10;99.90
7004;DHT22;3542;48.812;9.146;2023-02-25T17:31:26;4.00;99.90
7004;DHT22;3542;48.812;9.146;2023-02-25T17:34:00;4.00;99.90
7004;DHT22;3542;48.812;9.146;2023-02-25T17:36:31;4.10;99.90
7004;DHT22;3542;48.812;9.146;2023-02-25T17:39:02;3.80;99.90
7004;DHT22;3542;48.812;9.146;2023-02-25T17:41:28;3.40;99.90
7004;DHT22;3542;48.812;9.146;2023-02-25T17:43:54;3.00;99.90
7004;DHT22;3542;48.812;9.146;2023-02-25T17:46:27;2.70;99.90
7004;DHT22;3542;48.812;9.146;2023-02-25T17:49:02;2.50;99.90
7004;DHT22;3542;48.812;9.146;2023-02-25T17:51:33;2.40;99.90
7004;DHT22;3542;48.812;9.146;2023-02-25T17:54:07;2.30;99.90
7004;DHT22;3542;48.812;9.146;2023-02-25T17:56:34;2.20;99.90
7004;DHT22;3542;48.812;9.146;2023-02-25T18:01:58;2.00;99.90
7004;DHT22;3542;48.812;9.146;2023-02-25T18:06:56;1.90;99.90
7004;DHT22;3542;48.812;9.146;2023-02-25T18:09:37;1.80;99.90
7004;DHT22;3542;48.812;9.146;2023-02-25T18:12:05;1.70;99.90
7004;DHT22;3542;48.812;9.146;2023-02-25T18:14:35;1.70;99.90
7004;DHT22;3542;48.812;9.146;2023-02-25T18:17:51;1.70;99.90
7004;DHT22;3542;48.812;9.146;2023-02-25T18:19:59;1.70;99.90
7004;DHT22;3542;48.812;9.146;2023-02-25T18:24:57;1.70;99.90
7004;DHT22;3542;48.812;9.146;2023-02-25T18:27:31;1.70;99.90
7004;DHT22;3542;48.812;9.146;2023-02-25T18:30:14;1.70;99.90
7004;DHT22;3542;48.812;9.146;2023-02-25T18:32:40;1.70;99.90
7004;DHT22;3542;48.812;9.146;2023-02-25T18:35:06;1.70;99.90
7004;DHT22;3542;48.812;9.146;2023-02-25T18:37:32;1.70;99.90
7004;DHT22;3542;48.812;9.146;2023-02-25T18:39:58;1.80;99.90
7004;DHT22;3542;48.812;9.146;2023-02-25T18:42:24;1.80;99.90
7004;DHT22;3542;48.812;9.146;2023-02-25T18:44:50;1.80;99.90
7004;DHT22;3542;48.812;9.146;2023-02-25T18:47:16;1.70;99.90
7004;DHT22;3542;48.812;9.146;2023-02-25T18:49:43;1.80;99.90
7004;DHT22;3542;48.812;9.146;2023-02-25T18:52:20;1.70;99.90
7004;DHT22;3542;48.812;9.146;2023-02-25T18:54:46;1.70;99.90
7004;DHT22;3542;48.812;9.146;2023-02-25T18:57:19;1.70;99.90
7004;DHT22;3542;48.812;9.146;2023-02-25T18:59:46;1.70;99.90
7004;DHT22;3542;48.812;9.146;2023-02-25T19:02:31;1.60;99.90
7004;DHT22;3542;48.812;9.146;2023-02-25T19:04:57;1.60;99.90
7004;DHT22;3542;48.812;9.146;2023-02-25T19:07:25;1.60;99.90
7004;DHT22;3542;48.812;9.146;2023-02-25T19:09:51;1.60;99.90
7004;DHT22;3542;48.812;9.146;2023-02-25T19:12:17;1.70;99.90
7004;DHT22;3542;48.812;9.146;2023-02-25T19:14:44;1.60;99.90
7004;DHT22;3542;48.812;9.146;2023-02-25T19:17:15;1.60;99.90
7004;DHT22;3542;48.812;9.146;2023-02-25T19:19:41;1.60;99.90
7004;DHT22;3542;48.812;9.146;2023-02-25T19:22:14;1.60;99.90
7004;DHT22;3542;48.812;9.146;2023-02-25T19:24:41;1.60;99.90
7004;DHT22;3542;48.812;9.146;2023-02-25T19:27:22;1.60;99.90
7004;DHT22;3542;48.812;9.146;2023-02-25T19:29:50;1.60;99.90
7004;DHT22;3542;48.812;9.146;2023-02-25T19:32:17;1.60;99.90
7004;DHT22;3542;48.812;9.146;2023-02-25T19:34:43;1.70;99.90
7004;DHT22;3542;48.812;9.146;2023-02-25T19:37:10;1.70;99.90
7004;DHT22;3542;48.812;9.146;2023-02-25T19:39:36;1.70;99.90
7004;DHT22;3542;48.812;9.146;2023-02-25T19:42:02;1.70;99.90
7004;DHT22;3542;48.812;9.146;2023-02-25T19:44:27;1.70;99.90
7004;DHT22;3542;48.812;9.146;2023-02-25T19:46:53;1.60;99.90
7004;DHT22;3542;48.812;9.146;2023-02-25T19:49:18;1.70;99.90
7004;DHT22;3542;48.812;9.146;2023-02-25T19:51:44;1.70;99.90
7004;DHT22;3542;48.812;9.146;2023-02-25T19:54:10;1.70;99.90
7004;DHT22;3542;48.812;9.146;2023-02-25T19:56:35;1.70;99.90
7004;DHT22;3542;48.812;9.146;2023-02-25T19:59:01;1.70;99.90
7004;DHT22;3542;48.812;9.146;2023-02-25T20:01:26;1.60;99.90
7004;DHT22;3542;48.812;9.146;2023-02-25T20:03:52;1.70;99.90
7004;DHT22;3542;48.812;9.146;2023-02-25T20:06:18;1.60;99.90
7004;DHT22;3542;48.812;9.146;2023-02-25T20:08:45;1.60;99.90
7004;DHT22;3542;48.812;9.146;2023-02-25T20:11:16;1.60;99.90
7004;DHT22;3542;48.812;9.146;2023-02-25T20:13:44;1.70;99.90
7004;DHT22;3542;48.812;9.146;2023-02-25T20:16:09;1.70;99.90
7004;DHT22;3542;48.812;9.146;2023-02-25T20:18:35;1.60;99.90
7004;DHT22;3542;48.812;9.146;2023-02-25T20:21:00;1.60;99.90
7004;DHT22;3542;48.812;9.146;2023-02-25T20:23:26;1.60;99.90
7004;DHT22;3542;48.812;9.146;2023-02-25T20:26:02;1.60;99.90
7004;DHT22;3542;48.812;9.146;2023-02-25T20:28:27;1.60;99.90
7004;DHT22;3542;48.812;9.146;2023-02-25T20:31:02;1.60;99.90
7004;DHT22;3542;48.812;9.146;2023-02-25T20:33:28;1.70;99.90
7004;DHT22;3542;48.812;9.146;2023-02-25T20:35:54;1.70;99.90
7004;DHT22;3542;48.812;9.146;2023-02-25T20:38:25;1.70;99.90
7004;DHT22;3542;48.812;9.146;2023-02-25T20:40:53;1.70;99.90
7004;DHT22;3542;48.812;9.146;2023-02-25T20:43:18;1.70;99.90
7004;DHT22;3542;48.812;9.146;2023-02-25T20:45:44;1.70;99.90
7004;DHT22;3542;48.812;9.146;2023-02-25T20:48:19;1.70;99.90
7004;DHT22;3542;48.812;9.146;2023-02-25T20:50:49;1.70;99.90
7004;DHT22;3542;48.812;9.146;2023-02-25T20:53:15;1.70;99.90
7004;DHT22;3542;48.812;9.146;2023-02-25T20:55:41;1.70;99.90
7004;DHT22;3542;48.812;9.146;2023-02-25T20:58:08;1.70;99.90
7004;DHT22;3542;48.812;9.146;2023-02-25T21:00:33;1.70;99.90
7004;DHT22;3542;48.812;9.146;2023-02-25T21:02:59;1.70;99.90
7004;DHT22;3542;48.812;9.146;2023-02-25T21:05:24;1.60;99.90
7004;DHT22;3542;48.812;9.146;2023-02-25T21:07:50;1.60;99.90
7004;DHT22;3542;48.812;9.146;2023-02-25T21:10:15;1.60;99.90
7004;DHT22;3542;48.812;9.146;2023-02-25T21:12:41;1.60;99.90
7004;DHT22;3542;48.812;9.146;2023-02-25T21:15:07;1.60;99.90
7004;DHT22;3542;48.812;9.146;2023-02-25T21:17:32;1.60;99.90
7004;DHT22;3542;48.812;9.146;2023-02-25T21:19:58;1.50;99.90